Time;durP1;ratioP1;P1;durP2;ratioP2;P2;SDS_P1;SDS_P2;PMS_P1;PMS_P2;Temp;Humidity;BMP_temperature;BMP_pressure;BME280_temperature;BME280_humidity;BME280_pressure;Samples;Min_cycle;Max_cycle;Signal;HPM_P1;HPM_P2
2022/01/30 00:00:06;;;;;;;21.60;3.70;;;7.00;99.90;;;;;;6303596;22;20015;-75
2022/01/30 00:02:32;;;;;;;29.48;4.45;;;7.00;99.90;;;;;;6303241;22;20011;-75
2022/01/30 00:04:58;;;;;;;19.13;4.03;;;7.00;99.90;;;;;;6303919;22;20064;-75
2022/01/30 00:07:24;;;;;;;23.15;4.10;;;7.00;99.90;;;;;;6302803;22;20095;-75
2022/01/30 00:09:50;;;;;;;24.33;4.22;;;7.00;99.90;;;;;;6303588;22;20042;-75
2022/01/30 00:12:18;;;;;;;26.23;3.88;;;7.00;99.90;;;;;;6305466;22;20041;-76
2022/01/30 00:14:44;;;;;;;24.83;4.05;;;7.00;99.90;;;;;;6305058;22;20019;-76
2022/01/30 00:17:20;;;;;;;23.83;3.97;;;7.00;99.90;;;;;;6306403;22;20022;-75
2022/01/30 00:19:53;;;;;;;20.75;3.78;;;7.20;99.90;;;;;;6305165;22;20018;-75
2022/01/30 00:25:04;;;;;;;16.90;3.08;;;7.30;99.90;;;;;;6304679;22;20018;-74
2022/01/30 00:27:46;;;;;;;19.25;3.22;;;7.20;99.90;;;;;;6305620;22;20065;-75
2022/01/30 00:30:14;;;;;;;21.83;3.78;;;7.20;99.90;;;;;;6305739;22;20017;-75
2022/01/30 00:32:40;;;;;;;26.52;5.35;;;7.10;99.90;;;;;;6304493;22;20019;-75
2022/01/30 00:35:07;;;;;;;18.80;4.25;;;7.10;99.90;;;;;;6279103;22;20011;-74
2022/01/30 00:37:32;;;;;;;22.83;4.35;;;7.10;99.90;;;;;;6305627;22;20052;-74
2022/01/30 00:39:58;;;;;;;19.23;3.53;;;7.10;99.90;;;;;;6305593;22;20082;-74
2022/01/30 00:42:24;;;;;;;23.80;4.22;;;7.00;99.90;;;;;;6278696;22;20015;-74
2022/01/30 00:44:49;;;;;;;22.75;4.60;;;7.00;99.90;;;;;;6314785;22;20015;-70
2022/01/30 00:47:15;;;;;;;20.27;4.13;;;6.80;99.90;;;;;;6369435;22;20014;-69
2022/01/30 00:49:41;;;;;;;21.95;4.30;;;7.00;99.90;;;;;;6314790;22;20017;-70
2022/01/30 00:52:07;;;;;;;23.73;3.70;;;6.90;99.90;;;;;;6341636;22;20067;-70
2022/01/30 00:54:33;;;;;;;17.45;3.47;;;6.80;99.90;;;;;;6341408;22;20015;-69
2022/01/30 00:56:59;;;;;;;24.58;4.45;;;6.80;99.90;;;;;;6341120;22;20095;-70
2022/01/30 00:59:24;;;;;;;27.20;4.43;;;6.80;99.90;;;;;;6341210;22;20014;-70
2022/01/30 01:01:50;;;;;;;16.73;3.88;;;6.80;99.90;;;;;;6341411;22;20071;-70
2022/01/30 01:04:17;;;;;;;17.38;3.55;;;6.90;99.90;;;;;;6341440;22;20010;-70
2022/01/30 01:06:48;;;;;;;22.92;3.63;;;6.90;99.90;;;;;;6341061;22;20010;-70
2022/01/30 01:09:15;;;;;;;19.90;3.80;;;7.00;99.90;;;;;;6341349;22;20010;-70
2022/01/30 01:12:08;;;;;;;23.30;4.22;;;6.90;99.90;;;;;;6340902;22;20015;-69
2022/01/30 01:25:56;;;;;;;31.42;4.95;;;6.50;99.90;;;;;;6216540;23;20016;-69
2022/01/30 01:28:22;;;;;;;24.33;4.00;;;6.40;99.90;;;;;;6319066;22;20019;-70
2022/01/30 01:30:47;;;;;;;24.60;3.92;;;6.40;99.90;;;;;;6340836;22;20022;-70
2022/01/30 01:33:14;;;;;;;23.33;4.53;;;6.40;99.90;;;;;;6341297;22;20391;-70
2022/01/30 01:35:41;;;;;;;24.20;3.10;;;6.40;99.90;;;;;;6343872;22;20017;-70
2022/01/30 01:38:12;;;;;;;31.33;4.35;;;6.40;99.90;;;;;;6344337;22;20006;-70
2022/01/30 01:40:40;;;;;;;24.10;4.18;;;6.20;99.90;;;;;;6370678;22;20018;-70
2022/01/30 01:43:06;;;;;;;21.50;4.95;;;6.20;99.90;;;;;;6344217;22;20715;-70
2022/01/30 01:45:36;;;;;;;25.65;4.68;;;6.20;99.90;;;;;;6338131;22;20018;-70
2022/01/30 01:48:09;;;;;;;26.15;5.07;;;6.10;99.90;;;;;;6338786;22;20014;-70
2022/01/30 01:50:40;;;;;;;;;;;6.00;99.90;;;;;;6338028;22;20093;-70
2022/01/30 01:53:08;;;;;;;22.95;3.58;;;6.00;99.90;;;;;;6336080;22;19910;-70
2022/01/30 01:55:35;;;;;;;22.90;3.83;;;5.90;99.90;;;;;;6335869;22;20010;-70
2022/01/30 01:58:01;;;;;;;19.50;3.15;;;5.90;99.90;;;;;;6335583;22;20089;-70
2022/01/30 02:00:27;;;;;;;20.70;3.40;;;6.00;99.90;;;;;;6336963;22;20011;-69
2022/01/30 02:02:54;;;;;;;22.10;3.13;;;6.10;99.90;;;;;;6335324;22;20041;-69
2022/01/30 02:05:22;;;;;;;22.42;3.25;;;6.10;99.90;;;;;;6335883;22;20010;-71
2022/01/30 02:10:24;;;;;;;19.63;3.70;;;6.30;99.90;;;;;;6334934;22;20017;-70
2022/01/30 02:12:53;;;;;;;21.60;3.90;;;6.10;99.90;;;;;;6335990;22;20011;-70
2022/01/30 02:26:17;;;;;;;31.10;5.18;;;5.90;99.90;;;;;;6326893;22;20011;-70
2022/01/30 02:28:42;;;;;;;23.83;4.43;;;5.90;99.90;;;;;;6335111;22;20078;-70
2022/01/30 02:31:13;;;;;;;26.67;3.95;;;5.90;99.90;;;;;;6334790;22;20049;-70
2022/01/30 02:33:40;;;;;;;26.88;5.07;;;6.00;99.90;;;;;;6335495;22;20019;-70
2022/01/30 02:36:06;;;;;;;22.65;4.68;;;6.10;99.90;;;;;;6334813;22;20042;-70
2022/01/30 02:38:32;;;;;;;30.15;4.75;;;6.20;99.90;;;;;;6334532;22;20080;-69
2022/01/30 02:40:58;;;;;;;27.25;4.78;;;6.20;99.90;;;;;;6308582;22;20023;-70
2022/01/30 02:43:30;;;;;;;26.67;4.05;;;6.20;99.90;;;;;;6334584;22;20018;-69
2022/01/30 02:48:34;;;;;;;25.33;5.40;;;6.40;99.90;;;;;;6334315;22;20442;-70
2022/01/30 02:51:12;;;;;;;;;;;6.40;99.90;;;;;;6335414;22;20014;-70
2022/01/30 02:53:42;;;;;;;25.63;4.47;;;6.40;99.90;;;;;;6334428;22;20365;-73
2022/01/30 02:56:07;;;;;;;29.13;5.15;;;6.40;99.90;;;;;;6335271;22;20354;-73
2022/01/30 02:58:33;;;;;;;26.27;4.60;;;6.40;99.90;;;;;;6333499;22;20158;-73
2022/01/30 03:00:59;;;;;;;32.13;5.97;;;6.50;99.90;;;;;;6334746;22;20099;-73
2022/01/30 03:03:25;;;;;;;26.70;5.05;;;6.50;99.90;;;;;;6309401;22;20015;-73
2022/01/30 03:05:50;;;;;;;26.65;4.80;;;6.50;99.90;;;;;;6334723;22;20014;-73
2022/01/30 03:08:16;;;;;;;26.80;4.28;;;6.50;99.90;;;;;;6336252;22;20021;-72
2022/01/30 03:10:42;;;;;;;30.40;5.28;;;6.50;99.90;;;;;;6312047;22;20010;-72
2022/01/30 03:13:08;;;;;;;24.60;4.43;;;6.50;99.90;;;;;;6312227;22;20019;-72
2022/01/30 03:15:35;;;;;;;27.08;4.30;;;6.50;99.90;;;;;;6338354;22;20018;-72
2022/01/30 03:18:00;;;;;;;23.25;3.97;;;6.50;99.90;;;;;;6311571;22;20026;-72
2022/01/30 03:20:26;;;;;;;16.73;3.65;;;6.50;99.90;;;;;;6339777;22;20089;-72
2022/01/30 03:22:52;;;;;;;20.23;3.85;;;6.60;99.90;;;;;;6311907;22;20499;-72
2022/01/30 03:25:18;;;;;;;20.45;3.40;;;6.50;99.90;;;;;;6337621;22;20046;-73
2022/01/30 03:27:50;;;;;;;20.58;4.03;;;6.40;99.90;;;;;;6339086;22;20496;-73
2022/01/30 03:30:24;;;;;;;20.23;3.85;;;6.40;99.90;;;;;;6337242;22;20018;-73
2022/01/30 03:32:50;;;;;;;27.42;4.88;;;6.40;99.90;;;;;;6337826;22;20015;-72
2022/01/30 03:35:15;;;;;;;25.98;4.65;;;6.30;99.90;;;;;;6338366;22;20006;-72
2022/01/30 03:37:41;;;;;;;26.95;4.43;;;6.30;99.90;;;;;;6310822;22;20046;-72
2022/01/30 03:40:07;;;;;;;25.90;4.30;;;6.30;99.90;;;;;;6311487;22;20405;-72
2022/01/30 03:42:33;;;;;;;30.15;5.70;;;6.20;99.90;;;;;;6311013;22;20019;-72
2022/01/30 03:44:58;;;;;;;33.72;5.97;;;6.20;99.90;;;;;;6311004;22;20017;-73
2022/01/30 03:47:26;;;;;;;24.73;4.65;;;6.10;99.90;;;;;;6285742;22;20002;-73
2022/01/30 03:49:52;;;;;;;33.45;5.05;;;6.00;99.90;;;;;;6334569;22;20018;-73
2022/01/30 03:52:18;;;;;;;33.55;6.10;;;5.90;99.90;;;;;;6334381;22;20025;-73
2022/01/30 03:54:44;;;;;;;32.33;5.85;;;5.90;99.90;;;;;;6334197;22;20023;-73
2022/01/30 03:57:10;;;;;;;35.47;6.15;;;5.90;99.90;;;;;;6332972;22;20073;-73
2022/01/30 03:59:36;;;;;;;37.35;6.00;;;5.90;99.90;;;;;;6333631;22;20095;-73
2022/01/30 04:02:02;;;;;;;35.47;6.28;;;5.90;99.90;;;;;;6334805;22;20090;-73
2022/01/30 04:04:27;;;;;;;40.53;6.80;;;5.90;99.90;;;;;;6333873;22;20081;-73
2022/01/30 04:06:56;;;;;;;34.90;6.28;;;5.90;99.90;;;;;;6333060;22;20092;-73
2022/01/30 04:09:22;;;;;;;36.90;6.35;;;5.80;99.90;;;;;;6333554;22;20056;-73
2022/01/30 04:11:48;;;;;;;37.80;7.32;;;5.80;99.90;;;;;;6336240;22;20019;-72
2022/01/30 04:14:14;;;;;;;40.83;6.38;;;5.90;99.90;;;;;;6336197;22;20003;-72
2022/01/30 04:16:40;;;;;;;38.97;6.63;;;5.90;99.90;;;;;;6310796;22;20384;-72
2022/01/30 04:19:06;;;;;;;44.58;7.38;;;5.90;99.90;;;;;;6335526;22;20493;-72
2022/01/30 04:21:31;;;;;;;37.63;7.22;;;6.00;99.90;;;;;;6336828;22;20092;-72
2022/01/30 04:23:57;;;;;;;34.65;6.20;;;6.00;99.90;;;;;;6336394;22;20022;-73
2022/01/30 04:26:23;;;;;;;31.45;5.85;;;6.00;99.90;;;;;;6336854;22;20025;-73
2022/01/30 04:28:48;;;;;;;31.75;5.82;;;6.00;99.90;;;;;;6309926;22;20010;-72
2022/01/30 04:31:14;;;;;;;40.28;5.63;;;6.00;99.90;;;;;;6337225;22;20034;-72
2022/01/30 04:33:40;;;;;;;34.55;6.50;;;6.10;99.90;;;;;;6336740;22;20015;-72
2022/01/30 04:36:09;;;;;;;33.47;6.25;;;6.10;99.90;;;;;;6337697;22;20454;-73
2022/01/30 04:38:58;;;;;;;38.80;5.28;;;6.10;99.90;;;;;;6310173;22;20015;-73
2022/01/30 04:41:38;;;;;;;46.45;6.80;;;6.00;99.90;;;;;;6335830;22;20500;-72
2022/01/30 04:52:22;;;;;;;41.80;6.28;;;5.90;99.90;;;;;;6288091;22;20458;-73
2022/01/30 05:00:50;;;;;;;38.03;7.10;;;6.00;99.90;;;;;;6156602;23;20484;-72
2022/01/30 05:06:04;;;;;;;41.10;6.97;;;6.10;99.90;;;;;;6309072;22;20082;-72
2022/01/30 05:08:30;;;;;;;41.38;7.03;;;6.00;99.90;;;;;;6309171;22;20017;-72
2022/01/30 05:10:56;;;;;;;40.20;6.25;;;5.90;99.90;;;;;;6309216;22;20114;-72
2022/01/30 05:13:25;;;;;;;50.65;8.98;;;5.90;99.90;;;;;;6308725;22;20038;-72
2022/01/30 05:15:51;;;;;;;47.42;8.57;;;5.80;99.90;;;;;;6309098;22;20010;-72
2022/01/30 05:18:28;;;;;;;45.78;8.07;;;5.80;99.90;;;;;;6309184;22;20003;-72
2022/01/30 05:20:55;;;;;;;46.10;7.97;;;5.70;99.90;;;;;;6309199;22;20014;-73
2022/01/30 05:23:20;;;;;;;46.78;7.22;;;5.70;99.90;;;;;;6283370;22;20017;-72
2022/01/30 05:25:48;;;;;;;45.13;7.45;;;5.70;99.90;;;;;;6309009;22;20014;-72
2022/01/30 05:28:18;;;;;;;40.90;8.18;;;5.60;99.90;;;;;;6308391;22;20010;-72
2022/01/30 05:30:44;;;;;;;44.00;7.53;;;5.60;99.90;;;;;;6308667;22;20018;-73
2022/01/30 05:33:11;;;;;;;36.15;7.13;;;5.60;99.90;;;;;;6309067;22;20014;-73
2022/01/30 05:35:37;;;;;;;46.80;8.38;;;5.60;99.90;;;;;;6308965;22;20049;-73
2022/01/30 05:38:05;;;;;;;45.65;7.20;;;5.80;99.90;;;;;;6308437;22;20014;-73
2022/01/30 05:40:32;;;;;;;44.50;7.50;;;5.80;99.90;;;;;;6308506;22;20140;-73
2022/01/30 05:42:58;;;;;;;48.72;7.78;;;5.80;99.90;;;;;;6308531;22;20026;-73
2022/01/30 05:45:41;;;;;;;37.30;7.20;;;5.90;99.90;;;;;;6317583;22;20088;-73
2022/01/30 05:48:14;;;;;;;46.10;7.43;;;5.80;99.90;;;;;;6335115;22;20013;-73
2022/01/30 05:50:40;;;;;;;43.50;7.63;;;5.90;99.90;;;;;;6335524;22;20063;-73
2022/01/30 05:53:06;;;;;;;44.17;7.80;;;5.90;99.90;;;;;;6334979;22;20022;-72
2022/01/30 05:55:31;;;;;;;41.40;6.75;;;5.90;99.90;;;;;;6335192;22;20015;-73
2022/01/30 05:57:58;;;;;;;44.22;7.63;;;5.90;99.90;;;;;;6335047;22;20050;-73
2022/01/30 06:00:23;;;;;;;36.38;6.78;;;5.80;99.90;;;;;;6335044;22;20088;-72
2022/01/30 06:02:49;;;;;;;51.00;8.15;;;5.80;99.90;;;;;;6309102;22;20414;-73
2022/01/30 06:05:17;;;;;;;46.83;7.90;;;5.80;99.90;;;;;;6335753;22;20006;-73
2022/01/30 06:07:50;;;;;;;44.58;8.10;;;5.70;99.90;;;;;;6334955;22;20007;-73
2022/01/30 06:10:16;;;;;;;;;;;5.60;99.90;;;;;;6335841;22;20335;-73
2022/01/30 06:12:41;;;;;;;45.17;7.63;;;5.60;99.90;;;;;;6336524;22;19917;-72
2022/01/30 06:15:08;;;;;;;44.70;7.57;;;5.60;99.90;;;;;;6335066;22;20019;-73
2022/01/30 06:17:34;;;;;;;40.30;7.30;;;5.50;99.90;;;;;;6334814;22;20011;-73
2022/01/30 06:20:00;;;;;;;53.72;8.10;;;5.50;99.90;;;;;;6334050;22;20015;-73
2022/01/30 06:22:25;;;;;;;43.42;7.88;;;5.50;99.90;;;;;;6334309;22;20087;-73
2022/01/30 06:24:51;;;;;;;40.83;7.65;;;5.40;99.90;;;;;;6333601;22;20015;-73
2022/01/30 06:27:16;;;;;;;53.50;9.75;;;5.50;99.90;;;;;;6334725;22;20014;-73
2022/01/30 06:29:42;;;;;;;47.95;7.88;;;5.40;99.90;;;;;;6333629;22;20081;-73
2022/01/30 06:32:08;;;;;;;44.25;8.02;;;5.40;99.90;;;;;;6335901;22;20031;-72
2022/01/30 06:34:33;;;;;;;40.28;6.57;;;5.40;99.90;;;;;;6285492;22;20662;-72
2022/01/30 06:36:59;;;;;;;55.55;8.90;;;5.40;99.90;;;;;;6336909;22;20050;-72
2022/01/30 06:39:25;;;;;;;49.95;8.25;;;5.40;99.90;;;;;;6336545;22;20089;-72
2022/01/30 06:41:52;;;;;;;45.35;8.02;;;5.40;99.90;;;;;;6336939;22;20010;-73
2022/01/30 06:44:17;;;;;;;45.65;8.70;;;5.50;99.90;;;;;;6337855;22;20082;-72
2022/01/30 06:46:43;;;;;;;36.83;7.40;;;5.50;99.90;;;;;;6286228;22;20050;-72
2022/01/30 06:49:09;;;;;;;48.75;7.97;;;5.50;99.90;;;;;;6284859;22;20485;-72
2022/01/30 06:51:34;;;;;;;45.95;8.40;;;5.60;99.90;;;;;;6284851;22;20014;-73
2022/01/30 06:54:00;;;;;;;44.03;7.55;;;5.60;99.90;;;;;;6338907;22;20018;-73
2022/01/30 06:56:25;;;;;;;38.90;7.38;;;5.70;99.90;;;;;;6339235;22;20019;-72
2022/01/30 06:58:55;;;;;;;54.08;9.00;;;5.70;99.90;;;;;;6338749;22;20014;-72
2022/01/30 07:01:23;;;;;;;41.65;7.43;;;5.80;99.90;;;;;;6308366;22;20017;-72
2022/01/30 07:03:48;;;;;;;46.78;8.85;;;5.80;99.90;;;;;;6334903;22;20029;-72
2022/01/30 07:06:15;;;;;;;52.50;9.02;;;5.80;99.90;;;;;;6333141;22;20074;-72
2022/01/30 07:08:40;;;;;;;53.65;7.63;;;5.80;99.90;;;;;;6308052;22;20015;-72
2022/01/30 07:11:06;;;;;;;44.95;8.73;;;5.80;99.90;;;;;;6308459;22;20015;-72
2022/01/30 07:13:31;;;;;;;47.40;7.60;;;5.80;99.90;;;;;;6307511;22;20015;-72
2022/01/30 07:15:57;;;;;;;45.13;7.65;;;5.80;99.90;;;;;;6307212;22;20505;-71
2022/01/30 07:18:22;;;;;;;52.70;7.65;;;5.90;99.90;;;;;;6308431;22;20023;-72
2022/01/30 07:20:48;;;;;;;40.92;7.45;;;5.90;99.90;;;;;;6306809;22;20057;-72
2022/01/30 07:23:14;;;;;;;41.65;7.85;;;5.90;99.90;;;;;;6308078;22;20022;-72
2022/01/30 07:25:41;;;;;;;44.58;8.82;;;5.90;99.90;;;;;;6307734;22;20021;-72
2022/01/30 07:28:06;;;;;;;50.65;8.52;;;5.90;99.90;;;;;;6308062;22;20085;-72
2022/01/30 07:30:32;;;;;;;46.40;7.75;;;6.00;99.90;;;;;;6307675;22;20525;-72
2022/01/30 07:32:58;;;;;;;45.00;7.97;;;6.00;99.90;;;;;;6307663;22;20018;-72
2022/01/30 07:35:23;;;;;;;37.22;7.07;;;6.00;99.90;;;;;;6308414;22;20022;-73
2022/01/30 07:37:49;;;;;;;47.33;8.40;;;6.00;99.90;;;;;;6308066;22;20010;-73
2022/01/30 07:40:15;;;;;;;53.38;8.43;;;6.00;99.90;;;;;;6336496;22;20090;-73
2022/01/30 07:42:41;;;;;;;46.10;7.95;;;6.00;99.90;;;;;;6308150;22;20068;-73
2022/01/30 07:45:08;;;;;;;53.45;7.88;;;6.00;99.90;;;;;;6313685;22;20479;-73
2022/01/30 07:47:34;;;;;;;47.88;7.90;;;6.00;99.90;;;;;;6334530;22;20010;-72
2022/01/30 07:50:00;;;;;;;48.03;8.18;;;6.00;99.90;;;;;;6333978;22;20014;-73
2022/01/30 07:52:25;;;;;;;49.95;8.05;;;6.10;99.90;;;;;;6334338;22;20022;-73
2022/01/30 07:54:51;;;;;;;48.83;8.27;;;6.10;99.90;;;;;;6334547;22;20021;-72
2022/01/30 07:57:17;;;;;;;51.63;8.35;;;6.20;99.90;;;;;;6334342;22;20011;-72
2022/01/30 07:59:43;;;;;;;49.03;8.05;;;6.20;99.90;;;;;;6334340;22;20029;-72
2022/01/30 08:02:09;;;;;;;45.45;8.43;;;6.20;99.90;;;;;;6334020;22;20498;-72
2022/01/30 08:04:34;;;;;;;51.38;8.45;;;6.30;99.90;;;;;;6334394;22;20048;-72
2022/01/30 08:07:01;;;;;;;51.05;9.00;;;6.30;99.90;;;;;;6334018;22;20011;-73
2022/01/30 08:09:27;;;;;;;48.80;8.68;;;6.40;99.90;;;;;;6334231;22;20443;-72
2022/01/30 08:11:53;;;;;;;41.03;7.78;;;6.40;99.90;;;;;;6333820;22;20018;-72
2022/01/30 08:14:18;;;;;;;43.28;8.30;;;6.40;99.90;;;;;;6334553;22;20015;-72
2022/01/30 08:16:44;;;;;;;54.22;9.43;;;6.40;99.90;;;;;;6334118;22;20018;-72
2022/01/30 08:19:09;;;;;;;41.47;7.70;;;6.30;99.90;;;;;;6334058;22;20015;-73
2022/01/30 08:21:35;;;;;;;47.88;8.27;;;6.30;99.90;;;;;;6333597;22;20018;-73
2022/01/30 08:24:01;;;;;;;45.47;10.27;;;6.30;99.90;;;;;;6334355;22;20098;-72
2022/01/30 08:26:26;;;;;;;49.30;8.32;;;6.30;99.90;;;;;;6335988;22;20510;-72
2022/01/30 08:28:52;;;;;;;59.22;9.77;;;6.30;99.90;;;;;;6334299;22;20018;-72
2022/01/30 08:31:18;;;;;;;47.35;8.05;;;6.20;99.90;;;;;;6335283;22;20015;-72
2022/01/30 08:33:43;;;;;;;43.70;8.52;;;6.20;99.90;;;;;;6336017;22;20022;-72
2022/01/30 08:36:09;;;;;;;41.47;7.57;;;6.20;99.90;;;;;;6335739;22;20398;-72
2022/01/30 08:38:35;;;;;;;45.42;7.35;;;6.20;99.90;;;;;;6337240;22;20011;-72
2022/01/30 08:41:01;;;;;;;47.22;8.43;;;6.30;99.90;;;;;;6336206;22;20342;-72
2022/01/30 08:43:26;;;;;;;43.08;7.53;;;6.20;99.90;;;;;;6336267;22;20017;-72
2022/01/30 08:45:52;;;;;;;46.05;7.78;;;6.30;99.90;;;;;;6308460;22;20090;-72
2022/01/30 08:48:19;;;;;;;40.42;7.90;;;6.30;99.90;;;;;;6335405;22;20002;-73
2022/01/30 08:50:46;;;;;;;52.70;8.10;;;6.30;99.90;;;;;;6335700;22;20437;-73
2022/01/30 08:53:11;;;;;;;47.90;7.30;;;6.40;99.90;;;;;;6335733;22;20537;-72
2022/01/30 08:55:37;;;;;;;40.85;8.07;;;6.40;99.90;;;;;;6334984;22;20606;-73
2022/01/30 08:58:08;;;;;;;42.33;8.10;;;6.40;98.70;;;;;;6335072;22;20094;-73
2022/01/30 09:00:39;;;;;;;41.00;6.97;;;6.50;98.40;;;;;;6336730;22;20104;-73
2022/01/30 09:03:06;;;;;;;45.50;8.15;;;6.50;98.40;;;;;;6337097;22;20378;-73
2022/01/30 09:05:33;;;;;;;35.38;7.50;;;6.50;97.90;;;;;;6335298;22;20010;-73
2022/01/30 09:08:03;;;;;;;45.17;7.85;;;6.50;97.90;;;;;;6336989;22;20343;-72
2022/01/30 09:10:38;;;;;;;43.40;7.55;;;6.50;98.60;;;;;;6334050;22;20466;-73
2022/01/30 09:13:05;;;;;;;53.85;8.02;;;6.40;97.70;;;;;;6334404;22;20355;-73
2022/01/30 09:15:36;;;;;;;40.88;7.65;;;6.40;98.30;;;;;;6333696;22;20038;-73
2022/01/30 09:18:07;;;;;;;42.28;7.53;;;6.40;99.40;;;;;;6334779;22;20355;-73
2022/01/30 09:20:33;;;;;;;47.75;7.90;;;6.50;99.50;;;;;;6334589;22;20042;-72
2022/01/30 09:22:59;;;;;;;53.28;7.93;;;6.60;99.30;;;;;;6334541;22;20060;-72
2022/01/30 09:25:24;;;;;;;50.65;8.60;;;6.60;99.20;;;;;;6336976;22;20007;-72
2022/01/30 09:27:50;;;;;;;53.90;8.55;;;6.70;98.50;;;;;;6334656;22;20486;-72
2022/01/30 09:30:17;;;;;;;45.03;8.52;;;6.70;98.50;;;;;;6334491;22;20438;-73
2022/01/30 09:32:43;;;;;;;48.08;8.50;;;6.70;98.40;;;;;;6334914;22;20050;-72
2022/01/30 09:35:10;;;;;;;35.90;7.20;;;6.70;98.20;;;;;;6332295;22;20350;-71
2022/01/30 09:37:36;;;;;;;34.60;7.20;;;6.70;98.20;;;;;;6335129;22;20087;-72
2022/01/30 09:40:03;;;;;;;46.47;8.10;;;6.70;97.00;;;;;;6333159;22;20097;-72
2022/01/30 09:42:29;;;;;;;44.83;8.27;;;6.60;97.60;;;;;;6303752;22;20332;-71
2022/01/30 09:45:00;;;;;;;44.83;7.95;;;6.60;97.80;;;;;;6332502;22;20015;-71
2022/01/30 09:47:26;;;;;;;52.42;9.70;;;6.60;97.00;;;;;;6331844;22;20006;-72
2022/01/30 09:49:52;;;;;;;45.35;6.95;;;6.70;97.20;;;;;;6332727;22;20021;-72
2022/01/30 09:52:19;;;;;;;47.33;7.70;;;6.80;96.40;;;;;;6333638;22;20018;-72
2022/01/30 09:54:47;;;;;;;44.30;8.18;;;6.80;96.70;;;;;;6333623;22;20018;-72
2022/01/30 09:57:13;;;;;;;51.80;7.93;;;6.80;96.80;;;;;;6333230;22;20046;-72
2022/01/30 09:59:39;;;;;;;38.35;7.25;;;6.90;96.60;;;;;;6333648;22;20643;-72
2022/01/30 10:02:06;;;;;;;39.33;7.95;;;6.90;97.40;;;;;;6307299;22;20450;-72
2022/01/30 10:04:32;;;;;;;43.13;8.15;;;7.00;96.50;;;;;;6335644;22;20006;-72
2022/01/30 10:07:04;;;;;;;43.80;8.77;;;7.10;96.30;;;;;;6334817;22;20010;-72
2022/01/30 10:09:33;;;;;;;46.22;7.60;;;7.20;95.90;;;;;;6335050;22;20003;-71
2022/01/30 10:12:14;;;;;;;47.35;8.32;;;7.20;96.20;;;;;;6308336;22;20013;-71
2022/01/30 10:14:50;;;;;;;38.03;7.40;;;7.20;95.40;;;;;;6335090;22;20067;-72
2022/01/30 10:17:32;;;;;;;44.25;7.72;;;7.30;95.60;;;;;;6334757;22;20045;-72
2022/01/30 10:20:05;;;;;;;46.88;8.65;;;7.30;95.00;;;;;;6335077;22;20080;-72
2022/01/30 10:22:32;;;;;;;46.42;8.50;;;7.30;95.00;;;;;;6334731;22;20022;-71
2022/01/30 10:24:57;;;;;;;49.25;8.38;;;7.40;95.10;;;;;;6334925;22;20075;-72
2022/01/30 10:27:28;;;;;;;47.47;8.30;;;7.40;95.70;;;;;;6334071;22;20366;-71
2022/01/30 10:30:05;;;;;;;53.78;8.10;;;7.50;95.70;;;;;;6334828;22;20010;-71
2022/01/30 10:32:31;;;;;;;38.65;7.05;;;7.70;94.90;;;;;;6334256;22;20045;-72
2022/01/30 10:35:06;;;;;;;41.63;7.40;;;7.80;94.10;;;;;;6334888;22;20089;-71
2022/01/30 10:37:32;;;;;;;41.63;7.85;;;7.80;94.00;;;;;;6308505;22;20011;-72
2022/01/30 10:40:12;;;;;;;46.72;8.35;;;7.70;94.60;;;;;;6336971;22;20007;-73
2022/01/30 10:42:46;;;;;;;47.50;9.55;;;7.70;95.40;;;;;;6309799;22;20352;-72
2022/01/30 10:45:14;;;;;;;48.90;9.27;;;7.70;95.40;;;;;;6284699;22;20283;-72
2022/01/30 10:47:41;;;;;;;45.83;9.15;;;7.70;95.80;;;;;;6310519;22;20026;-72
2022/01/30 10:50:14;;;;;;;48.97;8.60;;;7.60;96.40;;;;;;6336027;22;20011;-72
2022/01/30 10:52:55;;;;;;;52.00;7.78;;;7.60;96.60;;;;;;6338429;22;20015;-72
2022/01/30 10:55:32;;;;;;;54.35;10.23;;;7.50;96.60;;;;;;6339051;22;20011;-72
2022/01/30 10:58:01;;;;;;;44.38;7.93;;;7.50;97.40;;;;;;6337218;22;20028;-72
2022/01/30 11:00:48;;;;;;;48.22;7.90;;;7.60;96.80;;;;;;6336623;22;20018;-72
2022/01/30 11:03:55;;;;;;;55.03;8.88;;;7.60;97.40;;;;;;6337449;22;20068;-72
2022/01/30 11:06:20;;;;;;;37.75;8.25;;;7.70;98.30;;;;;;6339166;22;20018;-72
2022/01/30 11:08:49;;;;;;;39.70;8.05;;;8.00;95.80;;;;;;6336826;22;20011;-72
2022/01/30 11:19:11;;;;;;;48.03;8.82;;;8.40;94.00;;;;;;6336405;22;20015;-73
2022/01/30 11:21:38;;;;;;;48.05;8.13;;;8.50;94.50;;;;;;6337274;22;20015;-72
2022/01/30 11:24:05;;;;;;;39.90;7.20;;;8.50;93.30;;;;;;6338063;22;20115;-72
2022/01/30 11:26:32;;;;;;;42.20;8.10;;;8.60;91.80;;;;;;6311023;22;20011;-72
2022/01/30 11:29:00;;;;;;;38.63;7.82;;;8.50;91.60;;;;;;6338677;22;20046;-72
2022/01/30 11:31:26;;;;;;;39.42;7.45;;;8.50;91.00;;;;;;6338620;22;20060;-71
2022/01/30 11:33:53;;;;;;;40.38;8.13;;;8.40;90.60;;;;;;6335902;22;20023;-72
2022/01/30 11:36:23;;;;;;;46.20;9.00;;;8.40;91.30;;;;;;6336318;22;20007;-72
2022/01/30 11:38:49;;;;;;;45.80;9.07;;;8.30;91.20;;;;;;6334335;22;20011;-72
2022/01/30 11:41:19;;;;;;;33.58;7.50;;;8.20;91.00;;;;;;6285738;22;20770;-71
2022/01/30 11:44:19;;;;;;;54.40;12.27;;;8.10;90.50;;;;;;6336098;22;20439;-72
2022/01/30 11:46:58;;;;;;;42.05;8.23;;;8.10;90.80;;;;;;6309879;22;20343;-72
2022/01/30 11:49:38;;;;;;;44.47;9.30;;;8.10;91.60;;;;;;6335353;22;20011;-71
2022/01/30 11:52:06;;;;;;;46.25;13.20;;;8.30;91.30;;;;;;6336198;22;20015;-72
2022/01/30 11:54:42;;;;;;;47.83;14.82;;;8.60;90.60;;;;;;6337709;22;20458;-71
2022/01/30 11:57:21;;;;;;;46.63;10.25;;;8.60;90.40;;;;;;6311911;22;20014;-70
2022/01/30 11:59:48;;;;;;;37.95;7.93;;;8.50;89.50;;;;;;6337797;22;20018;-72
2022/01/30 12:02:31;;;;;;;45.92;9.35;;;8.60;89.90;;;;;;6339637;22;20018;-72
2022/01/30 12:05:01;;;;;;;33.20;8.00;;;8.70;90.00;;;;;;6311253;22;20045;-74
2022/01/30 12:07:47;;;;;;;34.25;8.77;;;9.00;87.70;;;;;;6339290;22;20075;-72
2022/01/30 12:10:15;;;;;;;35.72;7.85;;;9.20;88.10;;;;;;6338938;22;20013;-71
2022/01/30 12:12:55;;;;;;;34.70;7.10;;;9.30;86.30;;;;;;6337255;22;20046;-72
2022/01/30 12:15:42;;;;;;;30.02;6.45;;;9.40;83.10;;;;;;6335944;22;20086;-72
2022/01/30 12:18:12;;;;;;;38.90;6.80;;;9.40;80.60;;;;;;6334415;22;20064;-72
2022/01/30 12:21:11;;;;;;;35.92;6.45;;;9.40;81.40;;;;;;6336905;22;20023;-71
2022/01/30 12:23:40;;;;;;;32.38;7.20;;;9.50;81.00;;;;;;6330899;22;20064;-72
2022/01/30 12:26:16;;;;;;;42.28;12.98;;;9.60;78.50;;;;;;6309589;22;20068;-72
2022/01/30 12:28:44;;;;;;;35.90;8.80;;;9.80;77.00;;;;;;6337753;22;20090;-72
2022/01/30 12:31:32;;;;;;;42.13;9.93;;;9.90;76.40;;;;;;6336952;22;20097;-73
2022/01/30 12:34:11;;;;;;;35.72;7.25;;;9.90;77.40;;;;;;6336712;22;20018;-72
2022/01/30 12:36:40;;;;;;;34.85;6.63;;;10.00;76.50;;;;;;6335367;22;20184;-72
2022/01/30 12:39:12;;;;;;;31.50;5.95;;;10.20;76.80;;;;;;6337524;22;20072;-72
2022/01/30 12:41:39;;;;;;;37.78;8.40;;;10.30;76.10;;;;;;6337026;22;20025;-73
2022/01/30 12:44:10;;;;;;;32.67;6.40;;;10.50;76.50;;;;;;6338067;22;20014;-72
2022/01/30 12:46:45;;;;;;;33.33;6.35;;;10.70;75.10;;;;;;6338179;22;20071;-72
2022/01/30 12:49:23;;;;;;;32.45;6.65;;;10.60;75.10;;;;;;6312702;22;20010;-72
2022/01/30 12:51:54;;;;;;;31.05;5.97;;;10.50;72.80;;;;;;6312486;22;20427;-72
2022/01/30 12:54:23;;;;;;;33.45;7.13;;;10.40;73.90;;;;;;6339725;22;20011;-72
2022/01/30 12:56:50;;;;;;;27.85;5.68;;;10.20;74.10;;;;;;6339127;22;20018;-72
2022/01/30 12:59:17;;;;;;;29.10;6.57;;;10.10;72.40;;;;;;6311266;22;20030;-72
2022/01/30 13:01:45;;;;;;;38.05;6.78;;;10.10;74.30;;;;;;6311534;22;20018;-72
2022/01/30 13:04:13;;;;;;;41.75;7.22;;;10.00;74.00;;;;;;6340656;22;20014;-72
2022/01/30 13:06:46;;;;;;;29.27;6.68;;;9.90;75.20;;;;;;6338715;22;20006;-72
2022/01/30 13:09:16;;;;;;;;;;;9.80;74.20;;;;;;6312572;22;20015;-72
2022/01/30 13:11:42;;;;;;;37.50;6.88;;;9.60;74.20;;;;;;6337833;22;19981;-73
2022/01/30 13:14:09;;;;;;;36.90;7.07;;;9.40;75.10;;;;;;6334330;22;20050;-73
2022/01/30 13:16:40;;;;;;;29.83;6.38;;;9.20;75.70;;;;;;6307460;22;20017;-73
2022/01/30 13:19:08;;;;;;;31.42;6.22;;;9.00;75.60;;;;;;6308363;22;20015;-73
2022/01/30 13:21:35;;;;;;;36.05;6.45;;;9.00;76.50;;;;;;6308658;22;20018;-73
2022/01/30 13:24:03;;;;;;;36.72;6.75;;;9.10;76.30;;;;;;6308623;22;20121;-73
2022/01/30 13:26:34;;;;;;;43.13;7.00;;;9.20;77.60;;;;;;6309340;22;20011;-73
2022/01/30 13:29:02;;;;;;;36.47;6.97;;;9.20;78.00;;;;;;6308291;22;20011;-73
2022/01/30 13:31:30;;;;;;;35.20;6.50;;;9.00;78.30;;;;;;6309321;22;20014;-73
2022/01/30 13:34:29;;;;;;;35.95;6.22;;;9.00;78.60;;;;;;6336219;22;20046;-73
2022/01/30 13:37:09;;;;;;;25.58;5.35;;;9.10;78.90;;;;;;6279781;22;20022;-73
2022/01/30 13:43:11;;;;;;;32.00;5.45;;;9.40;78.00;;;;;;6309017;22;20011;-73
2022/01/30 13:48:15;;;;;;;29.00;5.57;;;10.10;74.40;;;;;;6335154;22;20018;-73
2022/01/30 13:50:48;;;;;;;28.42;6.28;;;10.60;73.30;;;;;;6308310;22;20057;-72
2022/01/30 13:53:15;;;;;;;24.10;5.45;;;10.90;71.00;;;;;;6335446;22;20071;-73
2022/01/30 13:56:02;;;;;;;35.88;6.30;;;11.00;67.30;;;;;;6309024;22;20014;-73